createdAt,value
2022-10-19T00:01:13.935Z,101013.97
2022-10-19T00:03:45.707Z,101012.67
2022-10-19T00:06:30.093Z,101020.36
2022-10-19T00:09:07.939Z,101028.31
2022-10-19T00:11:40.162Z,101022.27
2022-10-19T00:14:14.043Z,101026.21
2022-10-19T00:16:45.426Z,101021.48
2022-10-19T00:19:18.181Z,101020.49
2022-10-19T00:24:18.447Z,101026.27
2022-10-19T00:26:48.511Z,101026.82
2022-10-19T00:29:18.801Z,101027.33
2022-10-19T00:31:50.994Z,101032.16
2022-10-19T00:34:20.786Z,101033.47
2022-10-19T00:36:50.743Z,101031.86
2022-10-19T00:39:20.609Z,101034.62
2022-10-19T00:41:50.657Z,101020.14
2022-10-19T00:44:23.271Z,101019.27
2022-10-19T00:46:53.736Z,101021.64
2022-10-19T00:49:26.406Z,101021.64
2022-10-19T00:51:59.312Z,101021.33
2022-10-19T00:54:29.338Z,101025.70
2022-10-19T00:57:00.654Z,101019.73
2022-10-19T00:59:31.939Z,101019.71
2022-10-19T01:02:04.169Z,101020.95
2022-10-19T01:04:37.191Z,101015.66
2022-10-19T01:07:08.746Z,101009.69
2022-10-19T01:09:38.593Z,101008.45
2022-10-19T01:12:36.566Z,101002.87
2022-10-19T01:15:09.571Z,101002.87
2022-10-19T01:17:42.397Z,101006.97
2022-10-19T01:20:40.348Z,101009.19
2022-10-19T01:23:34.157Z,100999.45
2022-10-19T01:26:13.276Z,100999.77
2022-10-19T01:28:58.121Z,101000.16
2022-10-19T01:31:47.021Z,101004.14
2022-10-19T01:34:22.213Z,101002.23
2022-10-19T01:36:55.052Z,100993.13
2022-10-19T01:39:27.740Z,100993.13
2022-10-19T01:42:03.333Z,100989.75
2022-10-19T01:44:42.544Z,100989.75
2022-10-19T01:47:18.004Z,100984.88
2022-10-19T01:50:11.526Z,100984.88
2022-10-19T01:52:43.643Z,100994.70
2022-10-19T01:55:15.759Z,100995.01
2022-10-19T01:57:48.604Z,100991.61
2022-10-19T02:00:20.029Z,101003.37
2022-10-19T02:02:52.123Z,100995.12
2022-10-19T02:05:25.297Z,100996.51
2022-10-19T02:07:58.198Z,100992.94
2022-10-19T02:10:30.024Z,100992.38
2022-10-19T02:13:01.437Z,100993.52
2022-10-19T02:15:33.801Z,100994.72
2022-10-19T02:18:04.648Z,100987.20
2022-10-19T02:20:37.209Z,100987.20
2022-10-19T02:23:07.725Z,100987.52
2022-10-19T02:25:37.862Z,100985.81
2022-10-19T02:28:07.583Z,100981.94
2022-10-19T02:30:37.439Z,100978.70
2022-10-19T02:33:08.760Z,100980.06
2022-10-19T02:35:38.312Z,100977.38
2022-10-19T02:38:11.071Z,100982.41
2022-10-19T02:40:43.652Z,100979.75
2022-10-19T02:43:17.801Z,100982.64
2022-10-19T02:46:02.305Z,100975.14
2022-10-19T02:48:35.007Z,100987.81
2022-10-19T02:51:04.879Z,100984.78
2022-10-19T02:53:34.745Z,100977.78
2022-10-19T02:56:04.807Z,100981.20
2022-10-19T02:58:34.612Z,100976.35
2022-10-19T03:01:05.428Z,100976.70
2022-10-19T03:03:35.275Z,100976.70
2022-10-19T03:06:06.396Z,100976.48
2022-10-19T03:08:36.263Z,100977.16
2022-10-19T03:11:06.711Z,100978.28
2022-10-19T03:13:36.538Z,100978.75
2022-10-19T03:16:12.558Z,100981.80
2022-10-19T03:18:42.541Z,100979.91
2022-10-19T03:21:14.123Z,100985.45
2022-10-19T03:23:43.950Z,100985.45
2022-10-19T03:26:18.062Z,100976.58
2022-10-19T03:28:48.219Z,100979.22
2022-10-19T03:31:17.956Z,100981.67
2022-10-19T03:33:47.818Z,100991.99
2022-10-19T03:36:29.318Z,100953.17
2022-10-19T03:39:01.545Z,100953.17
2022-10-19T03:41:33.764Z,100974.19
2022-10-19T03:44:04.201Z,100974.19
2022-10-19T03:46:35.500Z,100970.91
2022-10-19T03:49:06.734Z,100963.68
2022-10-19T03:51:37.348Z,100973.83
2022-10-19T03:54:09.757Z,100972.52
2022-10-19T03:56:39.931Z,100969.20
2022-10-19T03:59:11.696Z,100979.84
2022-10-19T04:01:44.620Z,100977.95
2022-10-19T04:04:19.830Z,100977.20
2022-10-19T04:06:53.138Z,100981.84
2022-10-19T04:09:24.024Z,100983.54
2022-10-19T04:11:53.824Z,100980.98
2022-10-19T04:14:32.361Z,100991.66
2022-10-19T04:16:57.212Z,100990.06
2022-10-19T04:19:27.024Z,100986.95
2022-10-19T04:21:57.092Z,100989.12
2022-10-19T04:24:26.956Z,100990.67
2022-10-19T04:26:57.585Z,100987.79
2022-10-19T04:29:30.164Z,100987.79
2022-10-19T04:31:59.851Z,100988.92
2022-10-19T04:34:29.603Z,100974.27
2022-10-19T04:36:59.958Z,100987.84
2022-10-19T04:39:29.797Z,100987.18
2022-10-19T04:41:59.870Z,100996.11
2022-10-19T04:44:29.717Z,100994.93
2022-10-19T04:46:59.507Z,100992.05
2022-10-19T04:49:29.301Z,100989.72
2022-10-19T04:51:59.100Z,100982.49
2022-10-19T04:54:28.871Z,100979.85
2022-10-19T04:56:58.710Z,100990.09
2022-10-19T04:59:28.501Z,100987.64
2022-10-19T05:01:58.366Z,100987.27
2022-10-19T05:04:28.160Z,100998.22
2022-10-19T05:06:57.954Z,100988.30
2022-10-19T05:09:27.747Z,100992.37
2022-10-19T05:11:57.771Z,100994.64
2022-10-19T05:16:57.684Z,100995.30
2022-10-19T05:19:27.533Z,100998.32
2022-10-19T05:21:57.429Z,101002.00
2022-10-19T05:24:27.234Z,100998.59
2022-10-19T05:26:57.100Z,100996.05
2022-10-19T05:29:26.951Z,101002.65
2022-10-19T05:31:56.751Z,101008.70
2022-10-19T05:34:26.997Z,101002.27
2022-10-19T05:36:57.051Z,101002.27
2022-10-19T05:39:27.803Z,101005.58
2022-10-19T05:41:57.582Z,101009.84
2022-10-19T05:44:27.421Z,101010.41
2022-10-19T05:46:57.363Z,101011.53
2022-10-19T05:49:27.311Z,101016.09
2022-10-19T05:51:57.396Z,101025.72
2022-10-19T05:54:28.594Z,101024.48
2022-10-19T05:56:58.677Z,101024.48
2022-10-19T05:59:28.450Z,101023.92
2022-10-19T06:01:58.494Z,101032.03
2022-10-19T06:04:28.319Z,101029.38
2022-10-19T06:06:58.116Z,101037.15
2022-10-19T06:09:28.119Z,101034.41
2022-10-19T06:11:57.774Z,101038.27
2022-10-19T06:14:27.613Z,101041.02
2022-10-19T06:16:57.455Z,101041.02
2022-10-19T06:19:27.241Z,101044.52
2022-10-19T06:21:57.034Z,101042.05
2022-10-19T06:24:26.897Z,101024.86
2022-10-19T06:26:56.683Z,101045.09
2022-10-19T06:29:26.827Z,101046.32
2022-10-19T06:31:57.073Z,101043.94
2022-10-19T06:34:26.917Z,101054.23
2022-10-19T06:36:56.729Z,101050.00
2022-10-19T06:39:26.856Z,101056.53
2022-10-19T06:41:56.684Z,101055.67
2022-10-19T06:44:27.344Z,101059.63
2022-10-19T06:46:57.158Z,101064.06
2022-10-19T06:49:26.944Z,101064.06
2022-10-19T06:51:55.869Z,101056.55
2022-10-19T06:54:26.092Z,101061.16
2022-10-19T06:56:55.960Z,101054.92
2022-10-19T06:59:26.116Z,101063.44
2022-10-19T07:01:55.903Z,101053.34
2022-10-19T07:04:25.763Z,101052.29
2022-10-19T07:06:55.586Z,101059.75
2022-10-19T07:09:25.397Z,101066.96
2022-10-19T07:11:55.264Z,101064.86
2022-10-19T07:14:28.655Z,101072.81
2022-10-19T07:16:58.559Z,101078.20
2022-10-19T07:19:29.682Z,101080.16
2022-10-19T07:21:58.919Z,101077.31
2022-10-19T07:24:28.872Z,101088.41
2022-10-19T07:26:59.812Z,101089.42
2022-10-19T07:29:29.692Z,101082.23
2022-10-19T07:31:59.494Z,101082.23
2022-10-19T07:34:29.558Z,101088.48
2022-10-19T07:36:59.376Z,101088.48
2022-10-19T07:39:29.296Z,101086.96
2022-10-19T07:41:59.116Z,101085.64
2022-10-19T07:44:28.984Z,101091.79
2022-10-19T07:46:59.242Z,101091.22
2022-10-19T07:49:28.984Z,101093.11
2022-10-19T07:51:59.079Z,101088.71
2022-10-19T07:54:29.379Z,101085.30
2022-10-19T07:56:59.177Z,101096.39
2022-10-19T07:59:29.118Z,101100.64
2022-10-19T08:02:00.798Z,101095.63
2022-10-19T08:04:59.072Z,101082.28
2022-10-19T08:07:02.472Z,101092.52
2022-10-19T08:09:53.401Z,101098.72
2022-10-19T08:12:04.893Z,101095.70
2022-10-19T08:14:34.285Z,101087.80
2022-10-19T08:17:04.520Z,101092.42
2022-10-19T08:19:34.369Z,101089.42
2022-10-19T08:22:04.152Z,101096.05
2022-10-19T08:24:34.184Z,101102.48
2022-10-19T08:27:04.345Z,101102.48
2022-10-19T08:29:34.154Z,101100.59
2022-10-19T08:32:03.950Z,101099.03
2022-10-19T08:34:34.200Z,101099.79
2022-10-19T08:37:14.609Z,101093.71
2022-10-19T08:39:36.311Z,101100.05
2022-10-19T08:42:15.663Z,101099.08
2022-10-19T08:45:00.348Z,101092.57
2022-10-19T08:47:36.059Z,101094.16
2022-10-19T08:50:21.969Z,101093.61
2022-10-19T08:52:58.512Z,101092.28
2022-10-19T08:55:37.395Z,101095.32
2022-10-19T08:58:22.672Z,101103.55
2022-10-19T09:01:04.465Z,101095.63
2022-10-19T09:03:56.158Z,101096.17
2022-10-19T09:06:39.980Z,101093.14
2022-10-19T09:09:13.007Z,101092.88
2022-10-19T09:11:49.070Z,101091.61
2022-10-19T09:14:28.076Z,101093.89
2022-10-19T09:17:00.906Z,101089.53
2022-10-19T09:19:32.315Z,101097.03
2022-10-19T09:22:10.924Z,101097.22
2022-10-19T09:24:46.722Z,101100.74
2022-10-19T09:27:25.000Z,101109.78
2022-10-19T09:30:00.209Z,101110.79
2022-10-19T09:32:39.179Z,101111.59
2022-10-19T09:35:14.967Z,101107.77
2022-10-19T09:37:47.772Z,101122.94
2022-10-19T09:40:23.664Z,101122.94
2022-10-19T09:43:01.460Z,101124.69
2022-10-19T09:45:43.448Z,101123.30
2022-10-19T09:48:31.130Z,101123.20
2022-10-19T09:51:03.754Z,101122.53
2022-10-19T09:53:33.785Z,101123.22
2022-10-19T09:56:08.746Z,101131.02
2022-10-19T09:58:41.620Z,101138.72
2022-10-19T10:01:14.162Z,101135.32
2022-10-19T10:03:43.958Z,101136.19
2022-10-19T10:06:18.196Z,101138.16
2022-10-19T10:08:50.887Z,101135.93
2022-10-19T10:11:29.651Z,101132.01
2022-10-19T10:14:02.999Z,101125.63
2022-10-19T10:16:36.253Z,101138.30
2022-10-19T10:19:09.983Z,101130.52
2022-10-19T10:21:52.533Z,101142.22
2022-10-19T10:24:24.334Z,101130.54
2022-10-19T10:26:57.377Z,101130.54
2022-10-19T10:29:30.237Z,101129.75
2022-10-19T10:32:20.546Z,101116.53
2022-10-19T10:35:04.918Z,101118.48
2022-10-19T10:37:42.684Z,101118.48
2022-10-19T10:40:32.426Z,101117.99
2022-10-19T10:43:05.486Z,101116.21
2022-10-19T10:45:44.330Z,101122.94
2022-10-19T10:48:34.267Z,101125.59
2022-10-19T10:51:05.619Z,101123.53
2022-10-19T10:53:43.299Z,101118.82
2022-10-19T10:56:21.300Z,101113.70
2022-10-19T10:59:02.911Z,101110.55
2022-10-19T11:01:38.899Z,101110.55
2022-10-19T11:04:17.662Z,101096.91
2022-10-19T11:07:01.137Z,101097.35
2022-10-19T11:09:45.629Z,101093.54
2022-10-19T11:12:18.045Z,101107.81
2022-10-19T11:14:53.653Z,101115.05
2022-10-19T11:17:26.457Z,101111.32
2022-10-19T11:19:56.399Z,101126.81
2022-10-19T11:22:46.138Z,101132.95
2022-10-19T11:25:25.175Z,101130.61
2022-10-19T11:28:30.366Z,101123.54
2022-10-19T11:31:09.219Z,101125.55
2022-10-19T11:33:45.687Z,101125.69
2022-10-19T11:36:37.937Z,101132.30
2022-10-19T11:39:22.685Z,101133.55
2022-10-19T11:42:14.965Z,101136.11
2022-10-19T11:45:22.389Z,101127.84
2022-10-19T11:48:06.905Z,101127.84
2022-10-19T11:50:40.023Z,101122.19
2022-10-19T11:53:18.710Z,101132.28
2022-10-19T11:56:25.245Z,101125.27
2022-10-19T11:59:00.588Z,101126.07
2022-10-19T12:01:48.203Z,101129.55
2022-10-19T12:04:52.358Z,101138.67
2022-10-19T12:07:49.283Z,101127.52
2022-10-19T12:10:39.956Z,101122.24
2022-10-19T12:13:12.794Z,101129.45
2022-10-19T12:15:48.490Z,101130.92
2022-10-19T12:18:30.262Z,101138.62
2022-10-19T12:21:03.113Z,101137.53
2022-10-19T12:23:44.633Z,101126.53
2022-10-19T12:28:57.138Z,101131.64
2022-10-19T12:31:28.762Z,101137.94
2022-10-19T12:34:18.726Z,101135.08
2022-10-19T12:36:57.350Z,101137.02
2022-10-19T12:39:33.459Z,101129.91
2022-10-19T12:42:18.365Z,101124.48
2022-10-19T12:45:03.175Z,101125.39
2022-10-19T12:47:34.132Z,101123.96
2022-10-19T12:50:03.249Z,101127.24
2022-10-19T12:52:52.047Z,101127.02
2022-10-19T12:55:27.459Z,101128.26
2022-10-19T12:58:08.708Z,101124.39
2022-10-19T13:00:39.938Z,101130.00
2022-10-19T13:03:10.353Z,101125.17
2022-10-19T13:05:40.721Z,101128.61
2022-10-19T13:08:17.971Z,101131.47
2022-10-19T13:10:52.755Z,101132.91
2022-10-19T13:13:41.261Z,101131.57
2022-10-19T13:16:32.091Z,101130.78
2022-10-19T13:19:05.991Z,101139.73
2022-10-19T13:21:53.785Z,101139.73
2022-10-19T13:24:29.340Z,101137.30
2022-10-19T13:27:08.029Z,101131.22
2022-10-19T13:29:46.236Z,101135.27
2022-10-19T13:32:44.447Z,101142.36
2022-10-19T13:35:32.660Z,101142.36
2022-10-19T13:38:20.357Z,101142.45
2022-10-19T13:40:53.263Z,101132.17
2022-10-19T13:43:28.619Z,101136.90
2022-10-19T13:46:13.278Z,101136.03
2022-10-19T13:49:03.723Z,101125.41
2022-10-19T13:51:51.523Z,101119.70
2022-10-19T13:54:32.903Z,101121.09
2022-10-19T13:57:24.664Z,101118.09
2022-10-19T14:00:15.503Z,101120.41
2022-10-19T14:03:11.682Z,101125.23
2022-10-19T14:05:50.697Z,101124.15
2022-10-19T14:08:34.945Z,101119.39
2022-10-19T14:11:07.805Z,101121.56
2022-10-19T14:13:37.608Z,101111.02
2022-10-19T14:16:07.504Z,101103.70
2022-10-19T14:18:38.141Z,101100.27
2022-10-19T14:21:10.280Z,101101.80
2022-10-19T14:23:41.175Z,101100.26
2022-10-19T14:26:19.932Z,101102.61
2022-10-19T14:28:55.070Z,101105.91
2022-10-19T14:31:37.001Z,101106.72
2022-10-19T14:34:09.365Z,101109.31
2022-10-19T14:36:42.257Z,101109.98
2022-10-19T14:39:26.726Z,101107.00
2022-10-19T14:41:57.176Z,101112.11
2022-10-19T14:44:37.689Z,101114.02
2022-10-19T14:47:18.791Z,101108.27
2022-10-19T14:49:49.143Z,101117.58
2022-10-19T14:52:21.787Z,101118.67
2022-10-19T14:54:54.287Z,101108.91
2022-10-19T14:57:29.890Z,101112.20
2022-10-19T15:00:02.911Z,101108.97
2022-10-19T15:02:47.974Z,101108.97
2022-10-19T15:05:29.571Z,101113.90
2022-10-19T15:08:01.018Z,101104.91
2022-10-19T15:10:35.727Z,101113.52
2022-10-19T15:13:07.711Z,101114.14
2022-10-19T15:15:37.845Z,101107.33
2022-10-19T15:18:13.210Z,101104.79
2022-10-19T15:20:54.947Z,101104.77
2022-10-19T15:23:45.595Z,101113.95
2022-10-19T15:26:21.579Z,101106.37
2022-10-19T15:28:52.201Z,101107.33
2022-10-19T15:31:30.056Z,101107.00
2022-10-19T15:34:02.880Z,101109.61
2022-10-19T15:36:34.096Z,101110.99
2022-10-19T15:39:25.068Z,101112.99
2022-10-19T15:41:40.650Z,101115.08
2022-10-19T15:44:10.928Z,101116.67
2022-10-19T15:46:52.338Z,101111.95
2022-10-19T15:49:30.675Z,101116.69
2022-10-19T15:52:00.462Z,101116.39
2022-10-19T15:54:30.246Z,101114.84
2022-10-19T15:57:00.153Z,101118.72
2022-10-19T15:59:30.225Z,101124.02
2022-10-19T16:02:00.093Z,101128.03
2022-10-19T16:04:30.280Z,101134.92
2022-10-19T16:07:00.158Z,101122.63
2022-10-19T16:09:30.128Z,101129.07
2022-10-19T16:11:59.828Z,101129.07
2022-10-19T16:14:33.035Z,101126.61
2022-10-19T16:17:01.344Z,101127.92
2022-10-19T16:19:31.198Z,101129.98
2022-10-19T16:22:00.988Z,101128.52
2022-10-19T16:24:30.906Z,101136.33
2022-10-19T16:27:00.990Z,101134.03
2022-10-19T16:29:30.769Z,101137.16
2022-10-19T16:32:01.046Z,101141.63
2022-10-19T16:34:30.682Z,101133.83
2022-10-19T16:37:02.742Z,101140.86
2022-10-19T16:39:31.972Z,101142.08
2022-10-19T16:42:01.800Z,101144.16
2022-10-19T16:44:31.588Z,101150.66
2022-10-19T16:47:01.422Z,101150.88
2022-10-19T16:49:31.626Z,101155.84
2022-10-19T16:52:01.677Z,101156.27
2022-10-19T16:54:32.738Z,101155.22
2022-10-19T16:57:07.170Z,101153.92
2022-10-19T16:59:34.085Z,101163.30
2022-10-19T17:02:04.139Z,101172.29
2022-10-19T17:04:34.293Z,101182.67
2022-10-19T17:07:04.623Z,101182.67
2022-10-19T17:09:41.775Z,101187.50
2022-10-19T17:12:07.313Z,101191.09
2022-10-19T17:14:38.678Z,101185.33
2022-10-19T17:17:08.706Z,101192.69
2022-10-19T17:19:40.287Z,101188.34
2022-10-19T17:22:10.082Z,101203.02
2022-10-19T17:24:40.140Z,101198.55
2022-10-19T17:27:09.699Z,101205.00
2022-10-19T17:29:39.797Z,101210.20
2022-10-19T17:32:09.333Z,101209.23
2022-10-19T17:34:39.290Z,101208.65
2022-10-19T17:37:08.881Z,101212.23
2022-10-19T17:39:38.680Z,101221.27
2022-10-19T17:42:08.169Z,101221.27
2022-10-19T17:44:38.263Z,101226.62
2022-10-19T17:47:08.049Z,101225.47
2022-10-19T17:49:38.543Z,101227.62
2022-10-19T17:52:08.101Z,101229.38
2022-10-19T17:54:48.604Z,101228.49
2022-10-19T17:57:10.178Z,101230.67
2022-10-19T17:59:52.155Z,101230.67
2022-10-19T18:02:11.793Z,101238.38
2022-10-19T18:04:41.624Z,101236.77
2022-10-19T18:07:11.425Z,101240.86
2022-10-19T18:09:42.340Z,101242.84
2022-10-19T18:12:13.377Z,101244.73
2022-10-19T18:14:44.616Z,101249.12
2022-10-19T18:17:14.118Z,101244.83
2022-10-19T18:19:43.910Z,101246.72
2022-10-19T18:22:13.572Z,101250.58
2022-10-19T18:24:43.659Z,101251.98
2022-10-19T18:27:14.004Z,101252.95
2022-10-19T18:29:43.773Z,101248.75
2022-10-19T18:32:15.290Z,101249.65
2022-10-19T18:34:45.081Z,101250.42
2022-10-19T18:37:14.624Z,101257.02
2022-10-19T18:39:44.414Z,101255.53
2022-10-19T18:42:16.441Z,101254.02
2022-10-19T18:44:47.295Z,101252.69
2022-10-19T18:47:17.093Z,101252.69
2022-10-19T18:49:46.752Z,101256.71
2022-10-19T18:52:16.516Z,101259.42
2022-10-19T18:54:46.296Z,101256.08
2022-10-19T18:57:16.108Z,101258.71
2022-10-19T18:59:48.460Z,101253.34
2022-10-19T19:02:22.738Z,101255.73
2022-10-19T19:04:49.479Z,101257.83
2022-10-19T19:07:19.513Z,101255.16
2022-10-19T19:09:51.431Z,101260.64
2022-10-19T19:12:22.460Z,101267.27
2022-10-19T19:14:52.306Z,101264.03
2022-10-19T19:17:22.084Z,101269.69
2022-10-19T19:19:51.874Z,101268.33
2022-10-19T19:22:21.366Z,101268.33
2022-10-19T19:24:51.516Z,101273.33
2022-10-19T19:27:22.939Z,101283.62
2022-10-19T19:29:57.904Z,101277.34
2022-10-19T19:32:27.812Z,101287.45
2022-10-19T19:34:57.606Z,101280.52
2022-10-19T19:37:27.472Z,101275.92
2022-10-19T19:39:58.270Z,101276.80
2022-10-19T19:42:28.127Z,101286.12
2022-10-19T19:44:57.931Z,101277.90
2022-10-19T19:47:27.721Z,101287.51
2022-10-19T19:49:57.517Z,101285.54
2022-10-19T19:52:27.301Z,101286.98
2022-10-19T19:54:57.511Z,101294.63
2022-10-19T19:57:27.494Z,101298.61
2022-10-19T19:59:57.311Z,101293.60
2022-10-19T20:02:27.223Z,101294.55
2022-10-19T20:04:57.014Z,101294.55
2022-10-19T20:07:27.074Z,101295.52
2022-10-19T20:09:57.720Z,101297.81
2022-10-19T20:12:27.343Z,101296.69
2022-10-19T20:14:57.132Z,101302.16
2022-10-19T20:17:26.915Z,101302.16
2022-10-19T20:19:56.851Z,101301.81
2022-10-19T20:22:26.676Z,101303.31
2022-10-19T20:24:56.560Z,101299.46
2022-10-19T20:27:26.550Z,101305.39
2022-10-19T20:29:57.954Z,101303.16
2022-10-19T20:32:29.171Z,101301.33
2022-10-19T20:34:59.045Z,101300.19
2022-10-19T20:37:30.096Z,101303.05
2022-10-19T20:40:01.437Z,101300.32
2022-10-19T20:42:32.051Z,101308.09
2022-10-19T20:45:02.394Z,101308.09
2022-10-19T20:47:32.098Z,101308.16
2022-10-19T20:52:31.752Z,101305.22
2022-10-19T20:55:01.630Z,101310.99
2022-10-19T20:57:31.958Z,101308.19
2022-10-19T21:00:01.740Z,101310.19
2022-10-19T21:02:31.634Z,101315.20
2022-10-19T21:05:01.450Z,101316.31
2022-10-19T21:07:31.519Z,101316.02
2022-10-19T21:10:01.396Z,101319.44
2022-10-19T21:12:31.169Z,101321.50
2022-10-19T21:15:00.961Z,101321.50
2022-10-19T21:20:00.545Z,101318.23
2022-10-19T21:22:33.315Z,101318.95
2022-10-19T21:25:02.078Z,101318.95
2022-10-19T21:27:32.392Z,101321.53
2022-10-19T21:30:02.673Z,101315.83
2022-10-19T21:32:32.457Z,101325.86
2022-10-19T21:35:02.327Z,101327.58
2022-10-19T21:37:32.641Z,101322.13
2022-10-19T21:40:03.519Z,101323.38
2022-10-19T21:42:33.431Z,101323.38
2022-10-19T21:45:25.198Z,101328.06
2022-10-19T21:47:36.189Z,101331.73
2022-10-19T21:50:07.678Z,101332.02
2022-10-19T21:52:37.393Z,101335.56
2022-10-19T21:55:07.599Z,101331.62
2022-10-19T21:57:38.070Z,101332.47
2022-10-19T22:00:09.052Z,101331.42
2022-10-19T22:02:40.530Z,101336.91
2022-10-19T22:05:10.469Z,101336.23
2022-10-19T22:07:40.550Z,101338.40
2022-10-19T22:10:10.787Z,101338.63
2022-10-19T22:12:40.968Z,101336.78
2022-10-19T22:15:11.690Z,101341.35
2022-10-19T22:17:41.467Z,101341.09
2022-10-19T22:20:11.584Z,101337.41
2022-10-19T22:22:41.363Z,101334.26
2022-10-19T22:25:11.185Z,101336.25
2022-10-19T22:27:40.974Z,101347.45
2022-10-19T22:30:10.990Z,101346.20
2022-10-19T22:32:40.842Z,101346.78
2022-10-19T22:35:10.735Z,101344.31
2022-10-19T22:37:40.510Z,101336.20
2022-10-19T22:40:10.827Z,101348.37
2022-10-19T22:42:40.622Z,101343.51
2022-10-19T22:45:10.578Z,101352.89
2022-10-19T22:47:40.363Z,101351.92
2022-10-19T22:50:11.836Z,101346.78
2022-10-19T22:52:42.165Z,101347.58
2022-10-19T22:55:11.810Z,101350.66
2022-10-19T22:57:41.586Z,101345.23
2022-10-19T23:00:12.146Z,101349.58
2022-10-19T23:02:42.005Z,101352.83
2022-10-19T23:05:11.769Z,101351.80
2022-10-19T23:07:41.598Z,101351.80
2022-10-19T23:10:11.700Z,101353.83
2022-10-19T23:12:41.564Z,101356.55
2022-10-19T23:15:11.649Z,101354.49
2022-10-19T23:17:41.502Z,101355.13
2022-10-19T23:20:12.055Z,101350.14
2022-10-19T23:22:42.103Z,101348.67
2022-10-19T23:25:11.599Z,101341.62
2022-10-19T23:27:41.395Z,101337.43
2022-10-19T23:30:11.789Z,101340.75
2022-10-19T23:32:41.960Z,101345.45
2022-10-19T23:35:11.637Z,101345.55
2022-10-19T23:37:41.699Z,101350.04
2022-10-19T23:40:12.264Z,101354.41
2022-10-19T23:42:42.402Z,101349.45
2022-10-19T23:45:13.153Z,101346.66
2022-10-19T23:47:42.943Z,101344.69
2022-10-19T23:50:12.461Z,101350.22
2022-10-19T23:52:42.326Z,101352.56
2022-10-19T23:55:11.880Z,101354.47
2022-10-19T23:57:41.648Z,101346.74
